MAPA DE AEROPUERTO

INFORMACIÓN METAR y TAF

METAR FOR LELN
ADDS - METARS form results

(0841 UTC 22 October 2020)
Data provider http://aviationweather.gov/metar/data/
 
METAR text: LELN 220830Z 15007KT 110V200 5000 BR OVC002 10/10 Q1012
Conditions at: LELN (LEON/VIRGEN CAMI, ES) observed 0830 UTC 22 October 2020
Temperature: 10.0°C (50°F)
Dewpoint: 10.0°C (50°F) [RH = 100%]
Pressure (altimeter): 29.88 inches Hg (1012.0 mb)
Winds: from the SSE (150 degrees) at 8 MPH (7 knots; 3.6 m/s)
Visibility: 3 miles ( 5 km)
Ceiling: 200 feet AGL
Clouds: overcast cloud deck at 200 feet AGL
Weather: BR  (mist)

METAR text: LELN 220800Z 15008KT 120V190 0500 R23/1500U R05/1200U FG VV001 09/09 Q1012
Conditions at: LELN (LEON/VIRGEN CAMI, ES) observed 0800 UTC 22 October 2020
Temperature: 9.0°C (48°F)
Dewpoint: 9.0°C (48°F) [RH = 100%]
Pressure (altimeter): 29.88 inches Hg (1012.0 mb)
Winds: from the SSE (150 degrees) at 9 MPH (8 knots; 4.1 m/s)
Visibility: 0.31 miles (0.50 km)
Ceiling: indefinite ceiling with vertical visibility of 100 feet AGL
Clouds: obscured sky
Weather: FG  (fog)

Forecast for: LELN (LEON/VIRGEN CAMI, ES)
Text: TAF LELN 220800Z 2209/2309 18007KT 9999 SCT035 TX14/2216Z TN08/2306Z
Forecast period: 0900 UTC 22 October 2020 to 0900 UTC 23 October 2020
Forecast type: FROM: standard forecast or significant change
Winds: from the S (180 degrees) at 8 MPH (7 knots; 3.6 m/s)
Visibility: 6 or more miles (10+ km)
Ceiling: at least 12,000 feet AGL
Clouds: scattered clouds at 3500 feet AGL
Weather: no significant weather forecast for this period
Text: TEMPO 2209/2211 0500 FG VV001
Forecast period: 0900 to 1100 UTC 22 October 2020
Forecast type: TEMPORARY: The following changes expected for less than half the time period
Visibility: 0.31 miles (0.50 km)
Ceiling: indefinite ceiling with vertical visibility of 100 feet AGL
Clouds: obscured sky
Weather: FG  (fog)
Text: PROB30
Forecast period: 1200 to 1800 UTC 22 October 2020
Forecast type: TEMPORARY: The following changes expected for less than half the time period
Visibility: 1.24 miles (2.00 km)
Ceiling: 800 feet AGL
Clouds: broken clouds at 800 feet AGL
Weather: RA  (moderate rain)
Text: TEMPO 2212/2218 2000 RA BKN008
Forecast period: 2200 UTC 22 October 2020 to 0900 UTC 23 October 2020
Forecast type: TEMPORARY: The following changes expected for less than half the time period
Visibility: 0.12 miles (0.19 km)
Ceiling: indefinite ceiling with vertical visibility of 200 feet AGL
Clouds: obscured sky
Weather: FG  (fog)